Blue Star Naxos — SZUI — position and weather

sailwx.info

Track history (hours):
 
Tides and Currents Weather Stations Pressure Air Temp Water Temp Dewpoint Dewpoint Depression Visibility Wind Speed Wind Dir Waves Ship Positions

Blue Star Naxos

Last reported at 2016-Feb-08 20:33 UTC. Time now 2016-Feb-08 21:09 UTC.
Position N 37°08' E 025°10'.

Length 124 m; draft 5 m.

Type: Passenger vessel. MMSI: 239923000.

Date/timePositionNaut miles runAvg speedWind from/ knotsBaromVisibWave heightAir tempDewpointWater temp
2016-Feb-08 20:33N 37°08' E 025°10'7 7.3
2016-Feb-08 19:33N 37°09' E 025°01'6621.8
2016-Feb-08 16:32N 37°39' E 023°47'1919.2
2016-Feb-08 15:34N 37°56' E 023°38'1 0.5
2016-Feb-08 14:33N 37°57' E 023°38'0 0.0
2016-Feb-08 13:33N 37°57' E 023°38'1110.7
2016-Feb-08 12:33N 37°47' E 023°42'6521.6
2016-Feb-08 09:33N 37°15' E 024°53'1613.3
2016-Feb-08 08:22N 37°05' E 025°09'1113.0
2016-Feb-08 07:33N 37°06' E 025°22'6 5.7
2016-Feb-08 06:33N 37°02' E 025°18'12 9.5
2016-Feb-08 05:15N 36°53' E 025°30'913.1
2016-Feb-08 04:32N 36°54' E 025°41'4 0.9
2016-Feb-08 00:14N 36°55' E 025°37'17 9.8
2016-Feb-07 22:33N 37°02' E 025°18'8 8.0
2016-Feb-07 21:34N 37°10' E 025°15'8 8.1
2016-Feb-07 20:34N 37°10' E 025°05'1817.3
2016-Feb-07 19:32N 37°26' E 024°57'5719.0
2016-Feb-07 16:33N 37°39' E 023°47'1919.3
2016-Feb-07 15:34N 37°56' E 023°38'1 0.5
2016-Feb-07 14:33N 37°57' E 023°38'0 0.0
2016-Feb-07 13:33N 37°57' E 023°38'0 0.0
2016-Feb-07 12:33N 37°57' E 023°38'1 0.8
2016-Feb-07 11:33N 37°57' E 023°38'0 0.0
2016-Feb-07 10:33N 37°57' E 023°38'0 0.0
2016-Feb-07 09:33N 37°57' E 023°38'0 0.0
2016-Feb-07 08:33N 37°57' E 023°38'0 0.0
2016-Feb-07 07:33N 37°57' E 023°38'0 0.0
2016-Feb-07 06:33N 37°57' E 023°38'0 0.0
2016-Feb-07 05:33N 37°57' E 023°38'0 0.0
2016-Feb-07 04:33N 37°57' E 023°38'0 0.0
2016-Feb-07 03:33N 37°56' E 023°38'0 0.0
2016-Feb-07 02:33N 37°57' E 023°38'0 0.0
2016-Feb-07 01:33N 37°57' E 023°38'0 0.0
2016-Feb-07 00:33N 37°56' E 023°38'0 0.0
2016-Feb-06 23:33N 37°57' E 023°38'0 0.0
2016-Feb-06 22:33N 37°57' E 023°38'0 0.0
2016-Feb-06 21:33N 37°57' E 023°38'0 0.0
2016-Feb-06 20:33N 37°57' E 023°38'0 0.0
2016-Feb-06 19:33N 37°56' E 023°38'0 0.0
2016-Feb-06 18:33N 37°57' E 023°38'0 0.0
2016-Feb-06 17:33N 37°57' E 023°38'0 0.0
2016-Feb-06 16:33N 37°57' E 023°38'0 0.0
2016-Feb-06 15:33N 37°57' E 023°38'0 0.0
2016-Feb-06 14:33N 37°56' E 023°38'0 0.0
2016-Feb-06 13:33N 37°57' E 023°38'0 0.0
2016-Feb-06 12:33N 37°57' E 023°38'0 0.0
2016-Feb-06 11:33N 37°57' E 023°38'0 0.0
2016-Feb-06 10:33N 37°57' E 023°38'0 0.0
2016-Feb-06 09:33N 37°57' E 023°38'0 0.0
2016-Feb-06 08:33N 37°57' E 023°38'0 0.0
2016-Feb-06 07:33N 37°57' E 023°38'0 0.0
2016-Feb-06 06:33N 37°57' E 023°38'0 0.0
2016-Feb-06 05:33N 37°57' E 023°38'0 0.0
2016-Feb-06 04:33N 37°57' E 023°38'0 0.0
2016-Feb-06 03:33N 37°56' E 023°38'0 0.0
2016-Feb-06 02:33N 37°57' E 023°38'0 0.0
2016-Feb-06 01:33N 37°57' E 023°38'0 0.0
2016-Feb-06 00:33N 37°57' E 023°38'0 0.0
2016-Feb-05 23:33N 37°57' E 023°38'0 0.0
2016-Feb-05 22:33N 37°57' E 023°38'0 0.0
2016-Feb-05 21:33N 37°57' E 023°38'0 0.0
2016-Feb-05 20:33N 37°57' E 023°38'0 0.0
2016-Feb-05 19:33N 37°57' E 023°38'0 0.0
2016-Feb-05 18:33N 37°57' E 023°38'0 0.0
2016-Feb-05 17:33N 37°57' E 023°38'0 0.0
2016-Feb-05 16:33N 37°57' E 023°38'0 0.0
2016-Feb-05 15:33N 37°57' E 023°38'0 0.0
2016-Feb-05 14:32N 37°57' E 023°38'0 0.0
2016-Feb-05 13:33N 37°57' E 023°38'0 0.0
2016-Feb-05 12:33N 37°57' E 023°38'0 0.0
2016-Feb-05 11:33N 37°57' E 023°38'0 0.0
2016-Feb-05 10:33N 37°57' E 023°38'0 0.0
2016-Feb-05 09:33N 37°57' E 023°38'0 0.0
2016-Feb-05 08:33N 37°57' E 023°38'0 0.0
2016-Feb-05 07:33N 37°57' E 023°38'0 0.0
2016-Feb-05 06:33N 37°57' E 023°38'0 0.0
2016-Feb-05 05:32N 37°56' E 023°38'0 0.0
2016-Feb-05 04:33N 37°57' E 023°38'0 0.0
2016-Feb-05 03:33N 37°56' E 023°38'0 0.0
2016-Feb-05 02:33N 37°57' E 023°38'0 0.0
2016-Feb-05 01:33N 37°57' E 023°38'0 0.0
2016-Feb-05 00:33N 37°57' E 023°38'0 0.0
2016-Feb-04 23:33N 37°57' E 023°38'0 0.0
2016-Feb-04 22:33N 37°57' E 023°38'0 0.0
2016-Feb-04 21:33N 37°57' E 023°38'0 0.0
2016-Feb-04 20:33N 37°57' E 023°38'0 0.0
2016-Feb-04 19:33N 37°56' E 023°38'0 0.0
2016-Feb-04 18:33N 37°57' E 023°38'0 0.0
2016-Feb-04 17:33N 37°57' E 023°38'0 0.0
2016-Feb-04 16:33N 37°56' E 023°38'0 0.0
2016-Feb-04 15:33N 37°56' E 023°38'0 0.0
2016-Feb-04 14:33N 37°56' E 023°38'0 0.0
2016-Feb-04 13:33N 37°57' E 023°38'1111.4
2016-Feb-04 12:33N 37°46' E 023°43'2821.2
2016-Feb-04 11:15N 37°32' E 024°13'3621.4
2016-Feb-04 09:34N 37°15' E 024°53'1615.7
2016-Feb-04 08:33N 37°05' E 025°09'1110.7
2016-Feb-04 07:33N 37°06' E 025°22'1110.2
2016-Feb-04 06:32N 37°13' E 025°32'2118.5
2016-Feb-04 05:25N 36°60' E 025°52'26 6.6
2016-Feb-04 01:32N 36°42' E 026°15'1917.4
2016-Feb-04 00:26N 36°55' E 025°57'1411.8
2016-Feb-03 23:18N 37°06' E 025°47'1621.4
2016-Feb-03 22:34N 37°13' E 025°30'9 9.3
2016-Feb-03 21:33N 37°06' E 025°22'11 9.8
2016-Feb-03 20:28N 37°05' E 025°09'1112.4
2016-Feb-03 19:33N 37°11' E 024°57'6321.0
2016-Feb-03 16:32N 37°39' E 023°45'1818.1
2016-Feb-03 15:31N 37°57' E 023°38'0 0.0
2016-Feb-03 14:33N 37°57' E 023°38'0 0.0
2016-Feb-03 13:33N 37°57' E 023°38'9 9.4
2016-Feb-03 12:34N 37°48' E 023°41'6521.7
2016-Feb-03 09:33N 37°16' E 024°53'1715.4
2016-Feb-03 08:29N 37°05' E 025°09'1011.4
2016-Feb-03 07:34N 37°06' E 025°22'5 5.2
2016-Feb-03 06:34N 37°02' E 025°19'1311.2
2016-Feb-03 05:23N 36°52' E 025°30'1011.1
2016-Feb-03 04:29N 36°55' E 025°42'8 2.4
2016-Feb-03 01:15N 36°50' E 025°50'1114.7
2016-Feb-03 00:28N 36°55' E 025°37'7 7.7
2016-Feb-02 23:31N 36°53' E 025°28'1414.6
2016-Feb-02 22:34N 37°06' E 025°22'1111.4
2016-Feb-02 21:33N 37°07' E 025°08'8 7.7
2016-Feb-02 20:33N 37°14' E 025°04'1413.9
2016-Feb-02 19:33N 37°26' E 024°57'4618.7
2016-Feb-02 17:06N 37°35' E 023°60'1222.1
2016-Feb-02 16:33N 37°39' E 023°46'1918.6
2016-Feb-02 15:33N 37°57' E 023°38'0 0.1
2016-Feb-02 14:33N 37°57' E 023°38'0 0.0
2016-Feb-02 13:33N 37°57' E 023°38'9 9.4
2016-Feb-02 12:33N 37°48' E 023°42'6521.6
2016-Feb-02 09:33N 37°16' E 024°52'1716.1
2016-Feb-02 08:31N 37°05' E 025°09'1111.2
2016-Feb-02 07:33N 37°06' E 025°22'10 9.7
2016-Feb-02 06:32N 37°13' E 025°31'1717.5
2016-Feb-02 05:33N 37°03' E 025°49'1211.6
2016-Feb-02 04:33N 36°57' E 026°01'6 1.3
2016-Feb-01 23:30N 36°59' E 025°54'2019.0
2016-Feb-01 22:26N 37°12' E 025°34'1112.7
2016-Feb-01 21:34N 37°06' E 025°22'1211.9
2016-Feb-01 20:34N 37°06' E 025°07'8 8.1
2016-Feb-01 19:33N 37°10' E 024°59'6421.4
2016-Feb-01 16:33N 37°39' E 023°46'1919.0
2016-Feb-01 15:33N 37°56' E 023°38'0 0.2
2016-Feb-01 13:33N 37°57' E 023°38'1111.0
2016-Feb-01 12:33N 37°46' E 023°42'6421.4
2016-Feb-01 09:33N 37°15' E 024°53'1616.3
2016-Feb-01 08:34N 37°05' E 025°09'1110.5
2016-Feb-01 07:34N 37°06' E 025°22'5 5.2
2016-Feb-01 06:34N 37°02' E 025°19'1311.9
2016-Feb-01 05:27N 36°52' E 025°31'1010.0
2016-Feb-01 04:26N 36°54' E 025°43'7 6.7
2016-Feb-01 03:22N 36°50' E 025°50'1414.3
2016-Feb-01 02:24N 36°53' E 025°34'1210.2
2016-Feb-01 01:14N 36°59' E 025°20'711.1
2016-Feb-01 00:34N 37°06' E 025°22'1110.6
2016-Jan-31 23:33N 37°05' E 025°09'1414.2
2016-Jan-31 22:33N 37°18' E 025°02'1413.9
2016-Jan-31 21:32N 37°31' E 024°55'6120.6
2016-Jan-31 18:33N 37°45' E 023°39'1211.5
2016-Jan-31 17:33N 37°57' E 023°38'0 0.0
2016-Jan-31 16:33N 37°57' E 023°38'1716.6
2016-Jan-31 15:33N 37°41' E 023°46'4921.6
2016-Jan-31 13:18N 37°21' E 024°42'1722.2
2016-Jan-31 12:33N 37°11' E 024°59'10 9.4
2016-Jan-31 11:29N 37°05' E 025°09'7 7.8
2016-Jan-31 10:33N 37°10' E 025°16'6 6.4
2016-Jan-31 09:33N 37°06' E 025°22'10 9.5
2016-Jan-31 08:34N 37°12' E 025°13'2221.7
2016-Jan-31 07:34N 37°21' E 024°48'5221.6
2016-Jan-31 05:09N 37°39' E 023°46'19 2.8
2016-Jan-30 22:23N 37°57' E 023°38'0 0.1
2016-Jan-30 21:33N 37°57' E 023°38'0 0.0
2016-Jan-30 16:33N 37°57' E 023°38'0 0.0
2016-Jan-30 15:34N 37°57' E 023°38'0 0.0
2016-Jan-30 14:33N 37°57' E 023°38'0 0.0
2016-Jan-30 13:33N 37°57' E 023°38'0 0.0
2016-Jan-30 12:33N 37°57' E 023°38'0 0.0
2016-Jan-30 11:33N 37°57' E 023°38'0 0.0
2016-Jan-30 10:33N 37°57' E 023°38'0 0.0
2016-Jan-30 09:33N 37°57' E 023°38'0 0.0
2016-Jan-30 08:33N 37°57' E 023°38'  
Track history (hours):
 
Tides and Currents Weather Stations Pressure Air Temp Water Temp Dewpoint Dewpoint Depression Visibility Wind Speed Wind Dir Waves Ship Positions

Blue Star Naxos

Last reported at 2016-Feb-08 20:33 UTC. Time now 2016-Feb-08 21:09 UTC.
Position N 37°08' E 025°10'.

Length 124 m; draft 5 m.

Type: Passenger vessel. MMSI: 239923000.

Date/timePositionNaut miles runAvg speedWind from/ knotsBaromVisibWave heightAir tempDewpointWater temp
2016-Feb-08 20:33N 37°08' E 025°10'7 7.3
2016-Feb-08 19:33N 37°09' E 025°01'6621.8
2016-Feb-08 16:32N 37°39' E 023°47'1919.2
2016-Feb-08 15:34N 37°56' E 023°38'1 0.5
2016-Feb-08 14:33N 37°57' E 023°38'0 0.0
2016-Feb-08 13:33N 37°57' E 023°38'1110.7
2016-Feb-08 12:33N 37°47' E 023°42'6521.6
2016-Feb-08 09:33N 37°15' E 024°53'1613.3
2016-Feb-08 08:22N 37°05' E 025°09'1113.0
2016-Feb-08 07:33N 37°06' E 025°22'6 5.7
2016-Feb-08 06:33N 37°02' E 025°18'12 9.5
2016-Feb-08 05:15N 36°53' E 025°30'913.1
2016-Feb-08 04:32N 36°54' E 025°41'4 0.9
2016-Feb-08 00:14N 36°55' E 025°37'17 9.8
2016-Feb-07 22:33N 37°02' E 025°18'8 8.0
2016-Feb-07 21:34N 37°10' E 025°15'8 8.1
2016-Feb-07 20:34N 37°10' E 025°05'1817.3
2016-Feb-07 19:32N 37°26' E 024°57'5719.0
2016-Feb-07 16:33N 37°39' E 023°47'1919.3
2016-Feb-07 15:34N 37°56' E 023°38'1 0.5
2016-Feb-07 14:33N 37°57' E 023°38'0 0.0
2016-Feb-07 13:33N 37°57' E 023°38'0 0.0
2016-Feb-07 12:33N 37°57' E 023°38'1 0.8
2016-Feb-07 11:33N 37°57' E 023°38'0 0.0
2016-Feb-07 10:33N 37°57' E 023°38'0 0.0
2016-Feb-07 09:33N 37°57' E 023°38'0 0.0
2016-Feb-07 08:33N 37°57' E 023°38'0 0.0
2016-Feb-07 07:33N 37°57' E 023°38'0 0.0
2016-Feb-07 06:33N 37°57' E 023°38'0 0.0
2016-Feb-07 05:33N 37°57' E 023°38'0 0.0
2016-Feb-07 04:33N 37°57' E 023°38'0 0.0
2016-Feb-07 03:33N 37°56' E 023°38'0 0.0
2016-Feb-07 02:33N 37°57' E 023°38'0 0.0
2016-Feb-07 01:33N 37°57' E 023°38'0 0.0
2016-Feb-07 00:33N 37°56' E 023°38'0 0.0
2016-Feb-06 23:33N 37°57' E 023°38'0 0.0
2016-Feb-06 22:33N 37°57' E 023°38'0 0.0
2016-Feb-06 21:33N 37°57' E 023°38'0 0.0
2016-Feb-06 20:33N 37°57' E 023°38'0 0.0
2016-Feb-06 19:33N 37°56' E 023°38'0 0.0
2016-Feb-06 18:33N 37°57' E 023°38'0 0.0
2016-Feb-06 17:33N 37°57' E 023°38'0 0.0
2016-Feb-06 16:33N 37°57' E 023°38'0 0.0
2016-Feb-06 15:33N 37°57' E 023°38'0 0.0
2016-Feb-06 14:33N 37°56' E 023°38'0 0.0
2016-Feb-06 13:33N 37°57' E 023°38'0 0.0
2016-Feb-06 12:33N 37°57' E 023°38'0 0.0
2016-Feb-06 11:33N 37°57' E 023°38'0 0.0
2016-Feb-06 10:33N 37°57' E 023°38'0 0.0
2016-Feb-06 09:33N 37°57' E 023°38'0 0.0
2016-Feb-06 08:33N 37°57' E 023°38'0 0.0
2016-Feb-06 07:33N 37°57' E 023°38'0 0.0
2016-Feb-06 06:33N 37°57' E 023°38'0 0.0
2016-Feb-06 05:33N 37°57' E 023°38'0 0.0
2016-Feb-06 04:33N 37°57' E 023°38'0 0.0
2016-Feb-06 03:33N 37°56' E 023°38'0 0.0
2016-Feb-06 02:33N 37°57' E 023°38'0 0.0
2016-Feb-06 01:33N 37°57' E 023°38'0 0.0
2016-Feb-06 00:33N 37°57' E 023°38'0 0.0
2016-Feb-05 23:33N 37°57' E 023°38'0 0.0
2016-Feb-05 22:33N 37°57' E 023°38'0 0.0
2016-Feb-05 21:33N 37°57' E 023°38'0 0.0
2016-Feb-05 20:33N 37°57' E 023°38'0 0.0
2016-Feb-05 19:33N 37°57' E 023°38'0 0.0
2016-Feb-05 18:33N 37°57' E 023°38'0 0.0
2016-Feb-05 17:33N 37°57' E 023°38'0 0.0
2016-Feb-05 16:33N 37°57' E 023°38'0 0.0
2016-Feb-05 15:33N 37°57' E 023°38'0 0.0
2016-Feb-05 14:32N 37°57' E 023°38'0 0.0
2016-Feb-05 13:33N 37°57' E 023°38'0 0.0
2016-Feb-05 12:33N 37°57' E 023°38'0 0.0
2016-Feb-05 11:33N 37°57' E 023°38'0 0.0
2016-Feb-05 10:33N 37°57' E 023°38'0 0.0
2016-Feb-05 09:33N 37°57' E 023°38'0 0.0
2016-Feb-05 08:33N 37°57' E 023°38'0 0.0
2016-Feb-05 07:33N 37°57' E 023°38'0 0.0
2016-Feb-05 06:33N 37°57' E 023°38'0 0.0
2016-Feb-05 05:32N 37°56' E 023°38'0 0.0
2016-Feb-05 04:33N 37°57' E 023°38'0 0.0
2016-Feb-05 03:33N 37°56' E 023°38'0 0.0
2016-Feb-05 02:33N 37°57' E 023°38'0 0.0
2016-Feb-05 01:33N 37°57' E 023°38'0 0.0
2016-Feb-05 00:33N 37°57' E 023°38'0 0.0
2016-Feb-04 23:33N 37°57' E 023°38'0 0.0
2016-Feb-04 22:33N 37°57' E 023°38'0 0.0
2016-Feb-04 21:33N 37°57' E 023°38'0 0.0
2016-Feb-04 20:33N 37°57' E 023°38'0 0.0
2016-Feb-04 19:33N 37°56' E 023°38'0 0.0
2016-Feb-04 18:33N 37°57' E 023°38'0 0.0
2016-Feb-04 17:33N 37°57' E 023°38'0 0.0
2016-Feb-04 16:33N 37°56' E 023°38'0 0.0
2016-Feb-04 15:33N 37°56' E 023°38'0 0.0
2016-Feb-04 14:33N 37°56' E 023°38'0 0.0
2016-Feb-04 13:33N 37°57' E 023°38'1111.4
2016-Feb-04 12:33N 37°46' E 023°43'2821.2
2016-Feb-04 11:15N 37°32' E 024°13'3621.4
2016-Feb-04 09:34N 37°15' E 024°53'1615.7
2016-Feb-04 08:33N 37°05' E 025°09'1110.7
2016-Feb-04 07:33N 37°06' E 025°22'1110.2
2016-Feb-04 06:32N 37°13' E 025°32'2118.5
2016-Feb-04 05:25N 36°60' E 025°52'26 6.6
2016-Feb-04 01:32N 36°42' E 026°15'1917.4
2016-Feb-04 00:26N 36°55' E 025°57'1411.8
2016-Feb-03 23:18N 37°06' E 025°47'1621.4
2016-Feb-03 22:34N 37°13' E 025°30'9 9.3
2016-Feb-03 21:33N 37°06' E 025°22'11 9.8
2016-Feb-03 20:28N 37°05' E 025°09'1112.4
2016-Feb-03 19:33N 37°11' E 024°57'6321.0
2016-Feb-03 16:32N 37°39' E 023°45'1818.1
2016-Feb-03 15:31N 37°57' E 023°38'0 0.0
2016-Feb-03 14:33N 37°57' E 023°38'0 0.0
2016-Feb-03 13:33N 37°57' E 023°38'9 9.4
2016-Feb-03 12:34N 37°48' E 023°41'6521.7
2016-Feb-03 09:33N 37°16' E 024°53'1715.4
2016-Feb-03 08:29N 37°05' E 025°09'1011.4
2016-Feb-03 07:34N 37°06' E 025°22'5 5.2
2016-Feb-03 06:34N 37°02' E 025°19'1311.2
2016-Feb-03 05:23N 36°52' E 025°30'1011.1
2016-Feb-03 04:29N 36°55' E 025°42'8 2.4
2016-Feb-03 01:15N 36°50' E 025°50'1114.7
2016-Feb-03 00:28N 36°55' E 025°37'7 7.7
2016-Feb-02 23:31N 36°53' E 025°28'1414.6
2016-Feb-02 22:34N 37°06' E 025°22'1111.4
2016-Feb-02 21:33N 37°07' E 025°08'8 7.7
2016-Feb-02 20:33N 37°14' E 025°04'1413.9
2016-Feb-02 19:33N 37°26' E 024°57'4618.7
2016-Feb-02 17:06N 37°35' E 023°60'1222.1
2016-Feb-02 16:33N 37°39' E 023°46'1918.6
2016-Feb-02 15:33N 37°57' E 023°38'0 0.1
2016-Feb-02 14:33N 37°57' E 023°38'0 0.0
2016-Feb-02 13:33N 37°57' E 023°38'9 9.4
2016-Feb-02 12:33N 37°48' E 023°42'6521.6
2016-Feb-02 09:33N 37°16' E 024°52'1716.1
2016-Feb-02 08:31N 37°05' E 025°09'1111.2
2016-Feb-02 07:33N 37°06' E 025°22'10 9.7
2016-Feb-02 06:32N 37°13' E 025°31'1717.5
2016-Feb-02 05:33N 37°03' E 025°49'1211.6
2016-Feb-02 04:33N 36°57' E 026°01'6 1.3
2016-Feb-01 23:30N 36°59' E 025°54'2019.0
2016-Feb-01 22:26N 37°12' E 025°34'1112.7
2016-Feb-01 21:34N 37°06' E 025°22'1211.9
2016-Feb-01 20:34N 37°06' E 025°07'8 8.1
2016-Feb-01 19:33N 37°10' E 024°59'6421.4
2016-Feb-01 16:33N 37°39' E 023°46'1919.0
2016-Feb-01 15:33N 37°56' E 023°38'0 0.2
2016-Feb-01 13:33N 37°57' E 023°38'1111.0
2016-Feb-01 12:33N 37°46' E 023°42'6421.4
2016-Feb-01 09:33N 37°15' E 024°53'1616.3
2016-Feb-01 08:34N 37°05' E 025°09'1110.5
2016-Feb-01 07:34N 37°06' E 025°22'5 5.2
2016-Feb-01 06:34N 37°02' E 025°19'1311.9
2016-Feb-01 05:27N 36°52' E 025°31'1010.0
2016-Feb-01 04:26N 36°54' E 025°43'7 6.7
2016-Feb-01 03:22N 36°50' E 025°50'1414.3
2016-Feb-01 02:24N 36°53' E 025°34'1210.2
2016-Feb-01 01:14N 36°59' E 025°20'711.1
2016-Feb-01 00:34N 37°06' E 025°22'1110.6
2016-Jan-31 23:33N 37°05' E 025°09'1414.2
2016-Jan-31 22:33N 37°18' E 025°02'1413.9
2016-Jan-31 21:32N 37°31' E 024°55'6120.6
2016-Jan-31 18:33N 37°45' E 023°39'1211.5
2016-Jan-31 17:33N 37°57' E 023°38'0 0.0
2016-Jan-31 16:33N 37°57' E 023°38'1716.6
2016-Jan-31 15:33N 37°41' E 023°46'4921.6
2016-Jan-31 13:18N 37°21' E 024°42'1722.2
2016-Jan-31 12:33N 37°11' E 024°59'10 9.4
2016-Jan-31 11:29N 37°05' E 025°09'7 7.8
2016-Jan-31 10:33N 37°10' E 025°16'6 6.4
2016-Jan-31 09:33N 37°06' E 025°22'10 9.5
2016-Jan-31 08:34N 37°12' E 025°13'2221.7
2016-Jan-31 07:34N 37°21' E 024°48'5221.6
2016-Jan-31 05:09N 37°39' E 023°46'19 2.8
2016-Jan-30 22:23N 37°57' E 023°38'0 0.1
2016-Jan-30 21:33N 37°57' E 023°38'0 0.0
2016-Jan-30 16:33N 37°57' E 023°38'0 0.0
2016-Jan-30 15:34N 37°57' E 023°38'0 0.0
2016-Jan-30 14:33N 37°57' E 023°38'0 0.0
2016-Jan-30 13:33N 37°57' E 023°38'0 0.0
2016-Jan-30 12:33N 37°57' E 023°38'0 0.0
2016-Jan-30 11:33N 37°57' E 023°38'0 0.0
2016-Jan-30 10:33N 37°57' E 023°38'0 0.0
2016-Jan-30 09:33N 37°57' E 023°38'0 0.0
2016-Jan-30 08:33N 37°57' E 023°38'  

Dump ship's entire track history